Time;durP1;ratioP1;P1;durP2;ratioP2;P2;SDS_P1;SDS_P2;PMS_P1;PMS_P2;Temp;Humidity;BMP_temperature;BMP_pressure;BME280_temperature;BME280_humidity;BME280_pressure;Samples;Min_cycle;Max_cycle;Signal;HPM_P1;HPM_P2
2021/04/07 00:01:57;;;;;;;40.70;23.60;;;;;;;;;;5092971;28;20059;-64
2021/04/07 00:04:22;;;;;;;48.95;25.02;;;;;;;;;;5093014;28;20054;-64
2021/04/07 00:06:48;;;;;;;44.17;24.38;;;;;;;;;;5092912;28;20111;-64
2021/04/07 00:09:14;;;;;;;44.22;24.63;;;;;;;;;;5092768;28;20016;-65
2021/04/07 00:11:39;;;;;;;48.30;26.13;;;;;;;;;;5108596;28;20024;-64
2021/04/07 00:14:08;;;;;;;44.30;24.60;;;;;;;;;;5094473;28;20027;-65
2021/04/07 00:16:34;;;;;;;45.08;24.70;;;;;;;;;;5112190;28;20359;-66
2021/04/07 00:19:00;;;;;;;47.55;25.02;;;;;;;;;;5095171;28;20008;-65
2021/04/07 00:21:25;;;;;;;44.92;24.48;;;;;;;;;;5096495;28;20704;-65
2021/04/07 00:23:51;;;;;;;48.45;26.02;;;;;;;;;;5096416;28;20031;-66
2021/04/07 00:26:16;;;;;;;42.65;25.27;;;;;;;;;;5128814;27;20028;-66
2021/04/07 00:28:42;;;;;;;46.42;25.10;;;;;;;;;;5096758;28;20020;-66
2021/04/07 00:31:07;;;;;;;39.88;22.73;;;;;;;;;;5111863;28;20123;-66
2021/04/07 00:33:32;;;;;;;43.17;24.25;;;;;;;;;;5096045;28;20066;-66
2021/04/07 00:35:58;;;;;;;45.22;24.05;;;;;;;;;;5096024;28;20458;-66
2021/04/07 00:38:23;;;;;;;44.00;22.90;;;;;;;;;;5129039;27;20024;-66
2021/04/07 00:40:49;;;;;;;44.33;23.35;;;;;;;;;;5095868;28;20066;-66
2021/04/07 00:43:14;;;;;;;39.97;23.13;;;;;;;;;;5096032;28;20055;-67
2021/04/07 00:45:40;;;;;;;44.35;23.90;;;;;;;;;;5111583;28;20040;-66
2021/04/07 00:48:06;;;;;;;43.28;24.02;;;;;;;;;;5111446;28;20028;-66
2021/04/07 00:50:32;;;;;;;40.38;22.75;;;;;;;;;;5111648;28;20559;-67
2021/04/07 00:52:58;;;;;;;42.88;23.27;;;;;;;;;;5096843;28;20069;-63
2021/04/07 00:55:58;;;;;;;45.43;24.50;;;;;;;;;;5116245;28;20080;-63
2021/04/07 00:58:45;;;;;;;43.90;24.55;;;;;;;;;;5097791;28;20034;-63
2021/04/07 01:01:26;;;;;;;43.95;25.20;;;;;;;;;;5115055;28;20035;-62
2021/04/07 01:03:54;;;;;;;46.83;26.42;;;;;;;;;;5116500;28;20039;-63
2021/04/07 01:06:21;;;;;;;47.60;26.92;;;;;;;;;;5114966;28;20015;-62
2021/04/07 01:08:46;;;;;;;48.05;25.20;;;;;;;;;;5116049;28;20114;-62
2021/04/07 01:11:12;;;;;;;45.55;24.88;;;;;;;;;;5115642;28;20115;-62
2021/04/07 01:13:37;;;;;;;43.25;25.00;;;;;;;;;;5115654;28;20020;-62
2021/04/07 01:16:03;;;;;;;44.97;25.33;;;;;;;;;;5097482;28;20008;-62
2021/04/07 01:18:31;;;;;;;48.97;26.10;;;;;;;;;;5115676;28;20031;-62
2021/04/07 01:20:56;;;;;;;45.53;24.90;;;;;;;;;;5115590;28;20541;-62
2021/04/07 01:23:22;;;;;;;45.63;25.30;;;;;;;;;;5115444;28;20085;-62
2021/04/07 01:25:47;;;;;;;41.78;23.85;;;;;;;;;;5115411;28;20369;-61
2021/04/07 01:28:13;;;;;;;41.40;24.13;;;;;;;;;;5115634;28;20062;-62
2021/04/07 01:30:48;;;;;;;43.50;23.52;;;;;;;;;;5115252;28;20463;-61
2021/04/07 01:33:20;;;;;;;44.47;23.60;;;;;;;;;;5115440;28;20088;-62
2021/04/07 01:35:47;;;;;;;41.17;23.15;;;;;;;;;;5115392;28;20039;-61
2021/04/07 01:38:12;;;;;;;47.15;26.45;;;;;;;;;;5131003;27;20015;-61
2021/04/07 01:40:40;;;;;;;58.75;28.25;;;;;;;;;;5115228;28;20038;-61
2021/04/07 01:43:06;;;;;;;55.03;27.35;;;;;;;;;;5114991;28;20484;-61
2021/04/07 01:45:31;;;;;;;53.78;26.08;;;;;;;;;;5096949;28;20118;-61
2021/04/07 01:47:57;;;;;;;62.33;28.92;;;;;;;;;;5114922;28;20098;-62
2021/04/07 01:50:23;;;;;;;76.05;31.23;;;;;;;;;;5096984;28;20023;-65
2021/04/07 01:52:49;;;;;;;82.95;34.78;;;;;;;;;;5114967;28;20441;-61
2021/04/07 01:55:14;;;;;;;227.40;97.28;;;;;;;;;;5114931;28;20035;-62
2021/04/07 01:57:40;;;;;;;100.03;45.88;;;;;;;;;;5131005;27;20080;-61
2021/04/07 02:00:09;;;;;;;52.78;27.08;;;;;;;;;;5114958;28;20047;-62
2021/04/07 02:02:37;;;;;;;46.80;26.50;;;;;;;;;;5114854;28;20036;-61
2021/04/07 02:05:04;;;;;;;42.42;24.83;;;;;;;;;;5114921;28;20133;-61
2021/04/07 02:07:31;;;;;;;48.28;25.17;;;;;;;;;;5113593;28;20068;-61
2021/04/07 02:09:59;;;;;;;41.95;23.73;;;;;;;;;;5096348;28;20122;-65
2021/04/07 02:12:24;;;;;;;43.33;24.90;;;;;;;;;;5114734;28;20027;-66
2021/04/07 02:14:50;;;;;;;43.38;24.17;;;;;;;;;;5096616;28;20024;-66
2021/04/07 02:17:16;;;;;;;41.30;24.08;;;;;;;;;;5114916;28;20028;-65
2021/04/07 02:19:41;;;;;;;42.08;24.50;;;;;;;;;;5114644;28;20051;-65
2021/04/07 02:22:16;;;;;;;41.10;25.05;;;;;;;;;;5114449;28;20140;-65
2021/04/07 02:24:43;;;;;;;45.35;24.90;;;;;;;;;;5114397;28;20032;-65
2021/04/07 02:27:16;;;;;;;46.60;25.23;;;;;;;;;;5114421;28;20469;-66
2021/04/07 02:29:43;;;;;;;40.13;23.95;;;;;;;;;;5114258;28;20034;-66
2021/04/07 02:32:08;;;;;;;39.05;24.77;;;;;;;;;;5115524;28;20012;-66
2021/04/07 02:34:37;;;;;;;42.40;23.42;;;;;;;;;;5122545;27;20043;-66
2021/04/07 02:37:02;;;;;;;37.08;22.25;;;;;;;;;;5113713;28;20099;-66
2021/04/07 02:39:28;;;;;;;39.83;23.30;;;;;;;;;;5112879;28;20448;-67
2021/04/07 02:41:53;;;;;;;41.38;22.85;;;;;;;;;;5096074;28;20073;-67
2021/04/07 02:44:19;;;;;;;41.95;23.90;;;;;;;;;;5114218;28;20085;-67
2021/04/07 02:46:45;;;;;;;44.92;22.95;;;;;;;;;;5096382;28;20023;-66
2021/04/07 02:49:11;;;;;;;42.17;22.50;;;;;;;;;;5113905;28;20380;-66
2021/04/07 02:51:42;;;;;;;40.42;22.70;;;;;;;;;;5095801;28;20020;-66
2021/04/07 02:54:08;;;;;;;41.03;22.17;;;;;;;;;;5113536;28;20040;-66
2021/04/07 02:56:34;;;;;;;40.13;23.40;;;;;;;;;;5114049;28;20528;-66
2021/04/07 02:58:59;;;;;;;41.97;23.42;;;;;;;;;;5095059;28;20034;-67
2021/04/07 03:01:25;;;;;;;39.05;22.70;;;;;;;;;;5113906;28;20080;-67
2021/04/07 03:03:51;;;;;;;41.95;22.70;;;;;;;;;;5113908;28;20468;-66
2021/04/07 03:06:16;;;;;;;35.35;21.02;;;;;;;;;;5113986;28;20027;-66
2021/04/07 03:08:41;;;;;;;37.00;21.13;;;;;;;;;;5114106;28;20370;-66
2021/04/07 03:11:07;;;;;;;37.67;21.80;;;;;;;;;;5113478;28;20024;-66
2021/04/07 03:13:34;;;;;;;37.70;21.80;;;;;;;;;;5114238;28;20034;-66
2021/04/07 03:15:59;;;;;;;35.17;20.90;;;;;;;;;;5113681;28;20472;-66
2021/04/07 03:18:24;;;;;;;33.88;20.70;;;;;;;;;;5112387;28;20023;-66
2021/04/07 03:20:50;;;;;;;36.33;21.35;;;;;;;;;;5113368;28;20031;-66
2021/04/07 03:23:16;;;;;;;40.58;22.33;;;;;;;;;;5113590;28;20077;-66
2021/04/07 03:25:41;;;;;;;43.00;24.23;;;;;;;;;;5112263;28;20377;-66
2021/04/07 03:28:07;;;;;;;44.85;24.58;;;;;;;;;;5078496;28;20035;-67
2021/04/07 03:30:48;;;;;;;51.10;28.10;;;;;;;;;;5113488;28;20035;-66
2021/04/07 03:33:15;;;;;;;59.45;30.90;;;;;;;;;;5113619;28;20027;-66
2021/04/07 03:35:41;;;;;;;73.88;36.75;;;;;;;;;;5113502;28;20016;-66
2021/04/07 03:38:07;;;;;;;86.43;40.95;;;;;;;;;;5113403;28;20481;-66
2021/04/07 03:40:32;;;;;;;99.72;50.80;;;;;;;;;;5113617;28;20019;-66
2021/04/07 03:42:58;;;;;;;56.60;31.20;;;;;;;;;;5113681;28;20028;-65
2021/04/07 03:45:23;;;;;;;42.47;24.30;;;;;;;;;;5095247;28;20019;-66
2021/04/07 03:47:49;;;;;;;37.10;20.33;;;;;;;;;;5113696;28;20038;-66
2021/04/07 03:50:14;;;;;;;34.33;20.60;;;;;;;;;;5099050;28;20465;-66
2021/04/07 03:52:40;;;;;;;39.65;20.60;;;;;;;;;;5117158;28;20546;-66
2021/04/07 03:55:05;;;;;;;39.30;20.30;;;;;;;;;;5116884;28;20039;-66
2021/04/07 03:57:31;;;;;;;37.08;20.98;;;;;;;;;;5117229;28;20058;-66
2021/04/07 03:59:56;;;;;;;37.25;20.90;;;;;;;;;;5117395;28;20131;-66
2021/04/07 04:02:22;;;;;;;31.88;19.70;;;;;;;;;;5117416;28;20027;-66
2021/04/07 04:04:47;;;;;;;45.45;22.35;;;;;;;;;;5117416;28;20016;-66
2021/04/07 04:07:13;;;;;;;41.03;21.75;;;;;;;;;;5098539;28;20031;-66
2021/04/07 04:09:38;;;;;;;55.15;25.52;;;;;;;;;;5098817;28;20023;-66
2021/04/07 04:12:04;;;;;;;64.82;28.45;;;;;;;;;;5117057;28;20061;-65
2021/04/07 04:14:29;;;;;;;70.10;30.77;;;;;;;;;;5098671;28;20049;-65
2021/04/07 04:16:55;;;;;;;67.00;30.23;;;;;;;;;;5117151;28;20050;-65
2021/04/07 04:19:20;;;;;;;72.72;30.73;;;;;;;;;;5098812;28;20012;-65
2021/04/07 04:21:46;;;;;;;60.65;27.83;;;;;;;;;;5117156;28;20024;-65
2021/04/07 04:24:12;;;;;;;58.50;27.95;;;;;;;;;;5116532;28;20373;-65
2021/04/07 04:26:38;;;;;;;58.55;29.27;;;;;;;;;;5117029;28;20028;-65
2021/04/07 04:29:03;;;;;;;63.90;29.92;;;;;;;;;;5116580;28;20019;-65
2021/04/07 04:31:30;;;;;;;67.93;29.90;;;;;;;;;;5116288;28;20544;-60
2021/04/07 04:33:56;;;;;;;62.75;28.90;;;;;;;;;;5116572;28;20016;-61
2021/04/07 04:36:22;;;;;;;63.38;29.17;;;;;;;;;;5116525;28;20027;-60
2021/04/07 04:38:47;;;;;;;55.92;27.27;;;;;;;;;;5116592;28;20140;-60
2021/04/07 04:41:13;;;;;;;55.63;27.30;;;;;;;;;;5116396;28;20028;-61
2021/04/07 04:43:39;;;;;;;54.03;28.20;;;;;;;;;;5098061;28;20020;-60
2021/04/07 04:46:07;;;;;;;43.47;24.67;;;;;;;;;;5116304;28;20031;-60
2021/04/07 04:48:32;;;;;;;52.40;26.70;;;;;;;;;;5116169;28;20087;-60
2021/04/07 04:50:58;;;;;;;50.63;26.08;;;;;;;;;;5115892;28;20028;-61
2021/04/07 04:53:24;;;;;;;52.22;25.92;;;;;;;;;;5115534;28;20496;-61
2021/04/07 04:55:49;;;;;;;58.85;27.13;;;;;;;;;;5116068;28;20027;-62
2021/04/07 04:58:16;;;;;;;55.75;28.77;;;;;;;;;;5115740;28;20051;-60
2021/04/07 05:00:41;;;;;;;53.80;28.98;;;;;;;;;;5106583;27;20030;-61
2021/04/07 05:03:07;;;;;;;52.92;28.77;;;;;;;;;;5134642;27;20023;-61
2021/04/07 05:05:32;;;;;;;68.68;39.88;;;;;;;;;;5134753;27;20023;-61
2021/04/07 05:07:58;;;;;;;144.43;69.25;;;;;;;;;;5134703;27;20023;-61
2021/04/07 05:10:23;;;;;;;140.30;73.75;;;;;;;;;;5133467;27;20035;-61
2021/04/07 05:12:49;;;;;;;99.88;52.60;;;;;;;;;;5134528;27;20084;-61
2021/04/07 05:15:15;;;;;;;66.40;37.65;;;;;;;;;;5090889;27;20031;-61
2021/04/07 05:17:41;;;;;;;74.93;38.65;;;;;;;;;;5124537;27;20007;-62
2021/04/07 05:20:10;;;;;;;72.68;37.97;;;;;;;;;;5134378;27;20043;-62
2021/04/07 05:22:36;;;;;;;54.75;31.20;;;;;;;;;;5131857;27;20019;-61
2021/04/07 05:25:02;;;;;;;50.22;28.40;;;;;;;;;;5107466;27;20031;-61
2021/04/07 05:27:28;;;;;;;51.78;28.58;;;;;;;;;;5134363;27;20384;-61
2021/04/07 05:29:53;;;;;;;45.65;27.60;;;;;;;;;;5112861;27;20019;-61
2021/04/07 05:32:19;;;;;;;40.90;25.05;;;;;;;;;;5133997;27;20452;-61
2021/04/07 05:34:45;;;;;;;40.10;25.13;;;;;;;;;;5115762;27;20027;-62
2021/04/07 05:37:10;;;;;;;68.45;38.95;;;;;;;;;;5134191;27;20058;-61
2021/04/07 05:39:36;;;;;;;79.65;46.85;;;;;;;;;;5134012;27;20079;-62
2021/04/07 05:42:01;;;;;;;60.88;35.38;;;;;;;;;;5141423;27;20019;-61
2021/04/07 05:44:27;;;;;;;55.92;32.40;;;;;;;;;;5133815;27;20023;-62
2021/04/07 05:46:52;;;;;;;53.45;29.77;;;;;;;;;;5132835;27;20045;-61
2021/04/07 05:49:18;;;;;;;53.10;27.52;;;;;;;;;;5133690;27;20517;-62
2021/04/07 05:51:44;;;;;;;53.65;29.13;;;;;;;;;;5133763;27;20019;-61
2021/04/07 05:54:09;;;;;;;49.63;26.75;;;;;;;;;;5133008;27;20130;-62
2021/04/07 05:56:35;;;;;;;42.35;23.85;;;;;;;;;;5134135;27;20525;-62
2021/04/07 05:59:01;;;;;;;38.65;22.52;;;;;;;;;;5134933;27;20109;-61
2021/04/07 06:01:26;;;;;;;41.40;23.70;;;;;;;;;;5135250;27;20098;-62
2021/04/07 06:03:52;;;;;;;36.38;23.23;;;;;;;;;;5135117;27;20385;-61
2021/04/07 06:06:18;;;;;;;41.75;24.52;;;;;;;;;;5116877;27;20026;-62
2021/04/07 06:08:44;;;;;;;40.47;23.58;;;;;;;;;;5135084;27;20035;-62
2021/04/07 06:11:09;;;;;;;41.13;23.75;;;;;;;;;;5134198;27;20073;-62
2021/04/07 06:13:35;;;;;;;42.92;24.38;;;;;;;;;;5134912;27;20016;-61
2021/04/07 06:16:01;;;;;;;44.17;25.33;;;;;;;;;;5135041;27;20103;-62
2021/04/07 06:18:27;;;;;;;41.78;23.30;;;;;;;;;;5116748;27;20031;-61
2021/04/07 06:20:52;;;;;;;43.90;23.10;;;;;;;;;;5135184;27;20030;-61
2021/04/07 06:23:19;;;;;;;40.30;22.35;;;;;;;;;;5135159;27;20027;-61
2021/04/07 06:25:45;;;;;;;36.60;19.95;;;;;;;;;;5116644;27;20519;-61
2021/04/07 06:28:11;;;;;;;29.48;18.15;;;;;;;;;;5134703;27;20027;-62
2021/04/07 06:30:44;;;;;;;30.40;16.50;;;;;;;;;;5134929;27;20011;-61
2021/04/07 06:33:17;;;;;;;25.77;16.40;;;;;;;;;;5116627;27;20532;-61
2021/04/07 06:35:47;;;;;;;23.38;15.13;;;;;;;;;;5134923;27;20038;-62
2021/04/07 06:38:13;;;;;;;19.95;11.77;;;;;;;;;;5134630;27;20492;-61
2021/04/07 06:40:39;;;;;;;21.25;12.95;;;;;;;;;;5127176;27;20054;-61
2021/04/07 06:43:05;;;;;;;21.80;12.57;;;;;;;;;;5137020;27;20026;-66
2021/04/07 06:45:32;;;;;;;20.55;11.85;;;;;;;;;;5130183;27;20019;-67
2021/04/07 06:47:57;;;;;;;16.23;9.68;;;;;;;;;;5130162;27;20356;-67
2021/04/07 06:50:23;;;;;;;14.68;10.10;;;;;;;;;;5125309;27;20027;-67
2021/04/07 06:52:50;;;;;;;13.80;8.68;;;;;;;;;;5134642;27;20363;-67
2021/04/07 06:55:16;;;;;;;14.93;8.27;;;;;;;;;;5133305;27;20047;-67
2021/04/07 06:57:42;;;;;;;14.45;8.90;;;;;;;;;;5131107;27;20044;-67
2021/04/07 07:00:07;;;;;;;14.85;9.02;;;;;;;;;;5128212;27;20104;-67
2021/04/07 07:02:37;;;;;;;13.60;8.65;;;;;;;;;;5132874;27;20426;-67
2021/04/07 07:05:03;;;;;;;12.02;7.65;;;;;;;;;;5129414;27;20092;-67
2021/04/07 07:07:29;;;;;;;13.25;8.43;;;;;;;;;;5130323;28;20039;-67
2021/04/07 07:09:55;;;;;;;9.85;7.32;;;;;;;;;;5130287;28;20027;-67
2021/04/07 07:12:21;;;;;;;13.48;8.95;;;;;;;;;;5116404;28;20024;-62
2021/04/07 07:14:47;;;;;;;13.70;8.65;;;;;;;;;;5130732;28;20023;-62
2021/04/07 07:17:12;;;;;;;16.15;9.07;;;;;;;;;;5128848;28;20068;-61
2021/04/07 07:19:37;;;;;;;15.77;10.52;;;;;;;;;;5125152;28;20403;-62
2021/04/07 07:22:06;;;;;;;13.30;7.03;;;;;;;;;;5133814;27;20023;-68
2021/04/07 07:24:33;;;;;;;13.55;9.18;;;;;;;;;;5138416;27;20019;-68
2021/04/07 07:26:59;;;;;;;14.35;8.77;;;;;;;;;;5131895;27;20022;-68
2021/04/07 07:29:26;;;;;;;9.48;5.65;;;;;;;;;;5135763;27;20094;-68
2021/04/07 07:32:02;;;;;;;9.82;6.60;;;;;;;;;;5127792;27;20023;-68
2021/04/07 07:34:28;;;;;;;7.22;5.07;;;;;;;;;;5138352;27;20028;-62
2021/04/07 07:36:54;;;;;;;7.28;5.05;;;;;;;;;;5135906;27;20018;-62
2021/04/07 07:39:24;;;;;;;9.45;5.82;;;;;;;;;;5117296;27;20053;-61
2021/04/07 07:41:51;;;;;;;9.77;5.78;;;;;;;;;;5134108;27;20031;-62
2021/04/07 07:44:17;;;;;;;9.50;5.95;;;;;;;;;;5133282;27;20149;-62
2021/04/07 07:46:44;;;;;;;9.25;6.40;;;;;;;;;;5130168;27;20026;-68
2021/04/07 07:49:17;;;;;;;10.25;6.18;;;;;;;;;;5131516;27;20102;-68
2021/04/07 07:51:44;;;;;;;6.70;5.18;;;;;;;;;;5131479;27;20031;-68
2021/04/07 07:54:14;;;;;;;11.73;7.32;;;;;;;;;;5134344;27;20035;-68
2021/04/07 07:56:41;;;;;;;8.13;5.38;;;;;;;;;;5133299;27;20081;-68
2021/04/07 07:59:07;;;;;;;10.35;6.93;;;;;;;;;;5134002;27;20019;-68
2021/04/07 08:01:43;;;;;;;10.77;7.40;;;;;;;;;;5142765;27;20038;-67
2021/04/07 08:04:09;;;;;;;13.25;8.98;;;;;;;;;;5117438;27;20118;-62
2021/04/07 08:06:35;;;;;;;15.63;10.02;;;;;;;;;;5113211;27;20168;-62
2021/04/07 08:09:01;;;;;;;17.60;8.75;;;;;;;;;;5130520;27;20107;-62
2021/04/07 08:11:26;;;;;;;17.25;10.15;;;;;;;;;;5135607;27;20034;-62
2021/04/07 08:13:54;;;;;;;13.80;9.32;;;;;;;;;;5119099;27;20019;-62
2021/04/07 08:16:21;;;;;;;17.90;9.63;;;;;;;;;;5136652;27;20011;-61
2021/04/07 08:18:48;;;;;;;14.05;9.27;;;;;;;;;;5134098;27;20502;-62
2021/04/07 08:21:18;;;;;;;15.13;8.55;;;;;;;;;;5136491;27;20080;-61
2021/04/07 08:23:44;;;;;;;10.32;6.97;;;;;;;;;;5153491;27;20083;-61
2021/04/07 08:26:14;;;;;;;8.65;6.95;;;;;;;;;;5134125;27;20026;-62
2021/04/07 08:28:41;;;;;;;8.40;6.30;;;;;;;;;;5131430;27;20465;-67
2021/04/07 08:31:17;;;;;;;7.63;5.38;;;;;;;;;;5136607;27;20062;-67
2021/04/07 08:33:44;;;;;;;10.98;6.00;;;;;;;;;;5124764;27;20019;-67
2021/04/07 08:36:10;;;;;;;9.20;5.75;;;;;;;;;;5136079;27;20027;-67
2021/04/07 08:38:37;;;;;;;11.23;6.15;;;;;;;;;;5133968;27;20384;-68
2021/04/07 08:41:09;;;;;;;8.02;5.80;;;;;;;;;;5135811;27;20038;-67
2021/04/07 08:43:35;;;;;;;8.18;5.75;;;;;;;;;;5135244;27;20030;-68
2021/04/07 08:46:10;;;;;;;8.45;5.57;;;;;;;;;;5132814;27;20011;-68
2021/04/07 08:48:36;;;;;;;10.02;5.93;;;;;;;;;;5135537;27;20080;-67
2021/04/07 08:51:06;;;;;;;8.98;5.15;;;;;;;;;;5125162;27;20024;-68
2021/04/07 08:53:32;;;;;;;5.78;4.78;;;;;;;;;;5118031;27;20091;-67
2021/04/07 08:56:02;;;;;;;4.28;3.50;;;;;;;;;;5134459;27;20035;-67
2021/04/07 08:58:28;;;;;;;4.65;3.75;;;;;;;;;;5134283;27;20023;-67
2021/04/07 09:00:57;;;;;;;3.53;3.22;;;;;;;;;;5136781;27;20026;-68
2021/04/07 09:03:27;;;;;;;3.47;3.08;;;;;;;;;;5135591;27;20108;-68
2021/04/07 09:05:53;;;;;;;4.40;3.65;;;;;;;;;;5136688;27;20125;-67
2021/04/07 09:08:20;;;;;;;4.00;3.00;;;;;;;;;;5135569;27;20102;-67
2021/04/07 09:10:47;;;;;;;4.10;3.10;;;;;;;;;;5136388;27;20076;-67
2021/04/07 09:13:17;;;;;;;3.75;2.72;;;;;;;;;;5128774;27;20012;-67
2021/04/07 09:15:47;;;;;;;4.00;3.17;;;;;;;;;;5124724;27;20449;-68
2021/04/07 09:18:14;;;;;;;3.25;2.85;;;;;;;;;;5129455;27;20028;-67
2021/04/07 09:20:41;;;;;;;2.97;2.70;;;;;;;;;;5133114;27;20020;-67
2021/04/07 09:23:10;;;;;;;2.78;2.58;;;;;;;;;;5147398;27;20019;-67
2021/04/07 09:25:37;;;;;;;4.15;3.40;;;;;;;;;;5130009;27;20026;-67
2021/04/07 09:28:08;;;;;;;3.85;3.08;;;;;;;;;;5135111;27;20053;-67
2021/04/07 09:30:44;;;;;;;4.65;3.47;;;;;;;;;;5123626;27;20027;-67
2021/04/07 09:33:10;;;;;;;2.78;2.58;;;;;;;;;;5149013;27;20361;-67
2021/04/07 09:35:37;;;;;;;3.17;2.88;;;;;;;;;;5133936;27;20023;-67
2021/04/07 09:38:03;;;;;;;3.58;2.92;;;;;;;;;;5134898;27;20019;-69
2021/04/07 09:40:28;;;;;;;4.20;3.35;;;;;;;;;;5136092;27;20098;-64
2021/04/07 09:42:54;;;;;;;4.00;3.40;;;;;;;;;;5135178;27;20023;-69
2021/04/07 09:45:23;;;;;;;7.63;3.90;;;;;;;;;;5126037;27;20449;-68
2021/04/07 09:47:56;;;;;;;4.90;2.97;;;;;;;;;;5120622;27;20030;-69
2021/04/07 09:50:27;;;;;;;91.82;28.73;;;;;;;;;;5133904;27;20506;-69
2021/04/07 09:52:52;;;;;;;9.18;5.47;;;;;;;;;;5128795;27;20027;-69
2021/04/07 09:55:19;;;;;;;2.75;2.55;;;;;;;;;;5135420;27;20518;-69
2021/04/07 09:57:54;;;;;;;10.93;5.88;;;;;;;;;;5135566;27;20030;-64
2021/04/07 10:00:20;;;;;;;3.00;2.67;;;;;;;;;;5117989;27;20024;-64
2021/04/07 10:02:45;;;;;;;2.03;1.70;;;;;;;;;;5114675;28;20051;-64
2021/04/07 10:05:11;;;;;;;2.58;2.25;;;;;;;;;;5132250;27;20070;-64
2021/04/07 10:07:38;;;;;;;2.25;2.03;;;;;;;;;;5135104;27;20019;-64
2021/04/07 10:10:07;;;;;;;2.63;2.40;;;;;;;;;;5139407;27;20358;-64
2021/04/07 10:12:33;;;;;;;2.72;2.50;;;;;;;;;;5135376;27;20011;-64
2021/04/07 10:15:03;;;;;;;3.08;2.88;;;;;;;;;;5122957;27;20034;-64
2021/04/07 10:17:30;;;;;;;2.85;2.65;;;;;;;;;;5114367;28;20026;-64
2021/04/07 10:19:55;;;;;;;2.55;2.35;;;;;;;;;;5119955;27;20025;-64
2021/04/07 10:22:26;;;;;;;4.18;3.72;;;;;;;;;;5134792;27;20115;-64
2021/04/07 10:25:04;;;;;;;3.63;3.22;;;;;;;;;;5134867;27;20033;-64
2021/04/07 10:27:30;;;;;;;4.15;3.75;;;;;;;;;;5133956;27;20054;-64
2021/04/07 10:30:08;;;;;;;4.47;4.07;;;;;;;;;;5134384;27;20073;-64
2021/04/07 10:32:38;;;;;;;4.93;4.40;;;;;;;;;;5108421;27;20031;-64
2021/04/07 10:35:04;;;;;;;7.22;4.90;;;;;;;;;;5134763;27;20015;-64
2021/04/07 10:37:29;;;;;;;4.88;4.47;;;;;;;;;;5134919;27;20453;-65
2021/04/07 10:39:58;;;;;;;3.75;2.97;;;;;;;;;;5134698;27;20019;-64
2021/04/07 10:42:23;;;;;;;4.38;3.80;;;;;;;;;;5134989;27;20031;-64
2021/04/07 10:44:56;;;;;;;2.78;2.35;;;;;;;;;;5134847;27;20023;-64
2021/04/07 10:47:22;;;;;;;1.65;1.55;;;;;;;;;;5134646;27;20473;-64
2021/04/07 10:49:53;;;;;;;2.88;2.67;;;;;;;;;;5134637;27;20022;-63
2021/04/07 10:52:20;;;;;;;;;;;;;;;;;;5135217;27;20034;-63
2021/04/07 10:54:54;;;;;;;3.22;2.85;;;;;;;;;;5133918;27;20368;-69
2021/04/07 10:57:29;;;;;;;3.20;2.97;;;;;;;;;;5133559;27;20043;-69
2021/04/07 10:59:54;;;;;;;2.90;2.60;;;;;;;;;;5134315;27;20019;-69
2021/04/07 11:02:21;;;;;;;3.03;2.67;;;;;;;;;;5134258;27;20080;-69
2021/04/07 11:04:49;;;;;;;3.03;2.53;;;;;;;;;;5134226;27;20485;-69
2021/04/07 11:07:18;;;;;;;4.15;3.22;;;;;;;;;;5133730;28;20016;-69
2021/04/07 11:09:48;;;;;;;4.07;3.10;;;;;;;;;;5132535;28;20023;-69
2021/04/07 11:12:15;;;;;;;4.20;3.10;;;;;;;;;;5134467;28;20019;-69
2021/04/07 11:14:41;;;;;;;4.95;3.50;;;;;;;;;;5134399;27;20019;-69
2021/04/07 11:17:13;;;;;;;3.60;3.00;;;;;;;;;;5134496;28;20479;-69
2021/04/07 11:19:39;;;;;;;2.13;1.83;;;;;;;;;;5118228;28;20031;-69
2021/04/07 11:22:05;;;;;;;3.22;2.88;;;;;;;;;;5129640;28;20024;-69
2021/04/07 11:24:31;;;;;;;2.28;2.08;;;;;;;;;;5128525;28;20075;-69
2021/04/07 11:26:57;;;;;;;2.80;2.60;;;;;;;;;;5133939;28;20019;-69
2021/04/07 11:29:22;;;;;;;2.40;2.20;;;;;;;;;;5122636;28;20465;-69
2021/04/07 11:31:52;;;;;;;2.70;2.50;;;;;;;;;;5134161;27;20030;-69
2021/04/07 11:34:23;;;;;;;3.13;2.40;;;;;;;;;;5133727;27;20117;-69
2021/04/07 11:39:40;;;;;;;3.90;2.92;;;;;;;;;;5134074;28;19908;-69
2021/04/07 11:44:32;;;;;;;3.80;2.63;;;;;;;;;;5122743;28;20462;-69
2021/04/07 11:46:59;;;;;;;2.03;1.88;;;;;;;;;;5133988;28;20076;-69
2021/04/07 11:49:25;;;;;;;3.22;2.50;;;;;;;;;;5130901;28;20023;-69
2021/04/07 11:51:51;;;;;;;2.67;2.38;;;;;;;;;;5113268;28;20081;-69
2021/04/07 11:54:17;;;;;;;2.70;2.22;;;;;;;;;;5114610;28;20043;-68
2021/04/07 11:56:45;;;;;;;3.22;2.35;;;;;;;;;;5132678;28;20046;-68
2021/04/07 11:59:12;;;;;;;2.25;2.03;;;;;;;;;;5134034;28;20015;-69
2021/04/07 12:01:37;;;;;;;3.67;1.83;;;;;;;;;;5149943;27;20034;-69
2021/04/07 12:04:03;;;;;;;3.38;1.80;;;;;;;;;;5133847;27;20011;-70
2021/04/07 12:06:29;;;;;;;2.05;1.75;;;;;;;;;;5133804;28;20118;-69
2021/04/07 12:08:54;;;;;;;1.63;1.50;;;;;;;;;;5133953;27;20023;-70
2021/04/07 12:11:20;;;;;;;2.80;2.22;;;;;;;;;;5137435;27;20035;-70
2021/04/07 12:13:46;;;;;;;2.10;1.65;;;;;;;;;;5137492;27;20019;-69
2021/04/07 12:16:12;;;;;;;2.35;1.60;;;;;;;;;;5137189;27;20019;-69
2021/04/07 12:18:37;;;;;;;1.65;1.55;;;;;;;;;;5137284;27;20027;-68
2021/04/07 12:21:03;;;;;;;1.65;1.55;;;;;;;;;;5137284;27;20369;-68
2021/04/07 12:23:28;;;;;;;2.03;1.92;;;;;;;;;;5137564;27;20031;-68
2021/04/07 12:25:54;;;;;;;2.20;2.08;;;;;;;;;;5137291;27;20030;-68
2021/04/07 12:28:21;;;;;;;2.47;2.15;;;;;;;;;;5137592;27;20019;-68
2021/04/07 12:30:50;;;;;;;2.70;2.42;;;;;;;;;;5152891;27;20526;-68
2021/04/07 12:33:17;;;;;;;14.93;8.45;;;;;;;;;;5137155;27;20012;-68
2021/04/07 12:35:58;;;;;;;20.30;10.25;;;;;;;;;;5137187;27;20023;-68
2021/04/07 12:38:25;;;;;;;17.85;10.88;;;;;;;;;;5116784;28;20028;-68
2021/04/07 12:40:52;;;;;;;3.53;3.22;;;;;;;;;;5117234;27;20027;-68
2021/04/07 12:43:18;;;;;;;3.85;3.53;;;;;;;;;;5137098;27;20035;-68
2021/04/07 12:45:43;;;;;;;4.80;4.43;;;;;;;;;;5137006;27;20031;-68
2021/04/07 12:48:09;;;;;;;5.88;5.38;;;;;;;;;;5136387;27;20023;-68
2021/04/07 12:50:35;;;;;;;4.10;3.80;;;;;;;;;;5136228;27;20027;-68
2021/04/07 12:53:03;;;;;;;2.17;2.08;;;;;;;;;;5136601;27;20023;-68
2021/04/07 12:55:29;;;;;;;2.42;2.20;;;;;;;;;;5136944;27;20042;-68
2021/04/07 12:57:54;;;;;;;2.17;2.08;;;;;;;;;;5136416;27;20019;-68
2021/04/07 13:00:20;;;;;;;2.17;1.95;;;;;;;;;;5136512;27;20437;-68
2021/04/07 13:02:47;;;;;;;2.30;2.10;;;;;;;;;;5136464;27;20030;-69
2021/04/07 13:05:14;;;;;;;2.50;2.30;;;;;;;;;;5136732;27;20027;-68
2021/04/07 13:07:39;;;;;;;2.47;2.28;;;;;;;;;;5136652;27;20019;-68
2021/04/07 13:10:05;;;;;;;2.63;2.42;;;;;;;;;;5136512;27;20039;-68
2021/04/07 13:12:30;;;;;;;2.47;2.28;;;;;;;;;;5136336;27;20380;-68
2021/04/07 13:14:56;;;;;;;2.00;1.88;;;;;;;;;;5118313;27;20076;-68
2021/04/07 13:17:25;;;;;;;3.17;2.38;;;;;;;;;;5125728;27;20015;-68
2021/04/07 13:19:56;;;;;;;3.10;2.78;;;;;;;;;;5116620;27;20497;-69
2021/04/07 13:22:22;;;;;;;2.88;2.67;;;;;;;;;;5129886;27;20028;-68
2021/04/07 13:24:47;;;;;;;3.67;3.17;;;;;;;;;;5135986;27;20480;-69
2021/04/07 13:27:13;;;;;;;3.22;3.00;;;;;;;;;;5134970;27;20076;-69
2021/04/07 13:29:39;;;;;;;2.90;2.65;;;;;;;;;;5136320;27;20547;-69
2021/04/07 13:32:06;;;;;;;3.08;2.78;;;;;;;;;;5136171;27;20126;-69
2021/04/07 13:34:53;;;;;;;4.50;3.55;;;;;;;;;;5135879;27;20019;-69
2021/04/07 13:37:24;;;;;;;5.53;4.60;;;;;;;;;;5136262;27;20027;-69
2021/04/07 13:45:06;;;;;;;9.25;6.43;;;;;;;;;;5115325;28;20114;-69
2021/04/07 13:47:31;;;;;;;15.00;9.80;;;;;;;;;;5113878;28;20099;-68
2021/04/07 13:49:57;;;;;;;11.30;7.13;;;;;;;;;;5133571;27;20433;-69
2021/04/07 13:52:23;;;;;;;7.45;5.47;;;;;;;;;;5135556;27;20475;-68
2021/04/07 13:54:52;;;;;;;7.75;5.43;;;;;;;;;;5135203;27;20047;-69
2021/04/07 13:57:23;;;;;;;6.57;4.85;;;;;;;;;;5135428;27;20023;-68
2021/04/07 13:59:49;;;;;;;4.47;3.97;;;;;;;;;;5135589;27;20027;-68
2021/04/07 14:02:14;;;;;;;6.97;4.88;;;;;;;;;;5135258;27;20026;-69
2021/04/07 14:04:40;;;;;;;6.45;4.63;;;;;;;;;;5135001;27;20019;-68
2021/04/07 14:07:08;;;;;;;6.30;4.68;;;;;;;;;;5135074;27;20094;-68
2021/04/07 14:09:34;;;;;;;5.50;4.78;;;;;;;;;;5115685;27;20460;-69
2021/04/07 14:12:00;;;;;;;4.53;3.85;;;;;;;;;;5130750;27;20045;-67
2021/04/07 14:14:25;;;;;;;4.88;3.97;;;;;;;;;;5128779;27;20025;-68
2021/04/07 14:16:51;;;;;;;5.13;3.70;;;;;;;;;;5130968;27;20460;-66
2021/04/07 14:19:16;;;;;;;5.18;4.20;;;;;;;;;;5134654;27;20118;-66
2021/04/07 14:21:42;;;;;;;8.05;6.35;;;;;;;;;;5134592;27;20023;-67
2021/04/07 14:24:08;;;;;;;5.38;4.30;;;;;;;;;;5133339;27;20023;-67
2021/04/07 14:26:37;;;;;;;2.50;1.98;;;;;;;;;;5134725;27;20016;-67
2021/04/07 14:29:03;;;;;;;1.60;1.50;;;;;;;;;;5134384;27;20031;-68
2021/04/07 14:31:29;;;;;;;3.70;2.50;;;;;;;;;;5133930;27;20334;-61
2021/04/07 14:33:57;;;;;;;4.38;2.80;;;;;;;;;;5120780;27;20080;-61
2021/04/07 14:36:23;;;;;;;2.15;1.95;;;;;;;;;;5112811;28;20103;-61
2021/04/07 14:38:48;;;;;;;5.60;3.08;;;;;;;;;;5116456;27;20107;-61